Birmingham-Shuttlesworth International Airport
KBHM : now visible

Airfield :











YOU CAN JOIN US ON...

 
LOGIN :

Register | Disclaimer

   EN    FR    IT 

 









Legend :    VFR   Marginal VFR   IFR   Intensive IFR   Very Intensive IFR
Visi :
Ceiling :
>= 8 km
>= 3000ft
5 to 8 km
1000 to 3000 ft
1500m to 5 km
500 to 1000 ft
800 to 1500m
200 to 500 ft
< 800m
< 200 ft
Symbols :   Thunderstorms  Fog  Heavy snow  Heavy precipitations  Wind > 20 kt






- Airport Elevation : 650 ft
- IATA code : BHM


KBHM - Birmingham-Shuttlesworth International

CURRENT METAR :
  • 301053Z 08003KT 7SM BKN011 OVC019 12/11 A3012 RMK AO2 SLP198 T01170106

EXPIRED METARs :
  • 301005Z 06005KT 10SM OVC010 12/11 A3013 RMK AO2 CIG 007V012 T01170106
  • 300953Z 05005KT 4SM BR OVC008 12/11 A3013 RMK AO2 RAE24 CIG 007V011 SLP200 P0002 T01170106
  • 300853Z 02004KT 6SM -RA BR BKN006 OVC020 12/11 A3014 RMK AO2 SLP204 P0004 60013 T01170111 53003
  • 300836Z 00000KT 10SM -RA SCT008 OVC021 12/11 A3013 RMK AO2 P0004 T01170111

TAF KBHM
Valid from the 30 at 10:00 until the 31 at 06:00 UTC


301029Z 3010/3106 07003KT 5SM SHRA BR OVC012
TEMPO 3011/3014 OVC007
FM301400 10003KT 3SM BR OVC005
FM302000 36004KT P6SM BKN006 OVC012
FM310100 02003KT 4SM BR OVC003
KZTL FIR / North America



MET'MAP, your aeronautical weather chart ! - Copyright ORBIFLY December 2007 - Disclaimer

ORBIFLY MET'MAP TEAM :

Programming & Development : Alexandra Zaïnal
Original concept : Baudouin d'Aumeries
Technical & hardware support : Manuel Goepfert
Assistance : Marc-Olivier Méhu




SOURCES & CREDITS :

   NOAA       Earth
Advisory